createdAt,value
2019-02-08T00:00:36.548Z,7.87
2019-02-08T00:05:40.107Z,5.20
2019-02-08T00:10:43.523Z,5.43
2019-02-08T00:15:47.034Z,6.27
2019-02-08T00:20:50.550Z,5.27
2019-02-08T00:25:54.223Z,9.70
2019-02-08T00:30:57.526Z,4.27
2019-02-08T00:36:06.659Z,6.67
2019-02-08T00:41:10.003Z,5.90
2019-02-08T00:46:14.469Z,6.70
2019-02-08T00:51:25.053Z,3.40
2019-02-08T00:56:29.533Z,3.27
2019-02-08T01:01:32.938Z,6.97
2019-02-08T01:06:39.229Z,6.30
2019-02-08T01:11:42.649Z,8.30
2019-02-08T01:16:45.899Z,4.03
2019-02-08T01:21:52.016Z,4.77
2019-02-08T01:26:55.593Z,8.93
2019-02-08T01:31:59.008Z,6.47
2019-02-08T01:37:08.668Z,8.03
2019-02-08T01:42:11.934Z,8.17
2019-02-08T01:47:15.494Z,11.00
2019-02-08T01:52:18.906Z,6.87
2019-02-08T01:57:25.437Z,8.27
2019-02-08T02:02:28.943Z,8.97
2019-02-08T02:07:32.273Z,9.37
2019-02-08T02:12:36.813Z,7.13
2019-02-08T02:17:40.138Z,10.30
2019-02-08T02:22:46.501Z,11.40
2019-02-08T02:27:49.939Z,11.90
2019-02-08T02:32:53.476Z,10.70
2019-02-08T02:37:56.930Z,14.30
2019-02-08T02:43:09.638Z,14.73
2019-02-08T02:48:13.786Z,11.80
2019-02-08T02:53:22.986Z,12.93
2019-02-08T02:58:32.558Z,11.97
2019-02-08T03:03:44.497Z,11.73
2019-02-08T03:08:47.916Z,15.10
2019-02-08T03:13:51.639Z,12.67
2019-02-08T03:18:54.945Z,12.03
2019-02-08T03:23:58.197Z,15.40
2019-02-08T03:29:02.583Z,15.00
2019-02-08T03:34:06.084Z,15.37
2019-02-08T03:39:09.590Z,15.20
2019-02-08T03:44:13.027Z,17.67
2019-02-08T03:49:16.272Z,16.03
2019-02-08T03:54:21.335Z,14.70
2019-02-08T03:59:24.620Z,16.30
2019-02-08T04:04:32.926Z,19.20
2019-02-08T04:09:42.595Z,16.33
2019-02-08T04:14:45.940Z,17.40
2019-02-08T04:19:49.207Z,16.80
2019-02-08T04:24:52.515Z,17.40
2019-02-08T04:29:55.978Z,12.23
2019-02-08T04:35:02.223Z,19.33
2019-02-08T04:40:06.078Z,14.47
2019-02-08T04:45:12.668Z,12.73
2019-02-08T04:50:17.942Z,11.87
2019-02-08T04:55:21.325Z,13.50
2019-02-08T05:00:29.445Z,16.30
2019-02-08T05:05:54.011Z,12.30
2019-02-08T05:10:58.946Z,13.50
2019-02-08T05:16:02.427Z,14.30
2019-02-08T05:21:08.536Z,10.67
2019-02-08T05:26:13.221Z,16.63
2019-02-08T05:31:16.727Z,15.30
2019-02-08T05:36:26.223Z,14.17
2019-02-08T05:41:29.663Z,16.70
2019-02-08T05:46:34.479Z,13.87
2019-02-08T05:51:38.180Z,16.00
2019-02-08T05:56:47.145Z,16.57
2019-02-08T06:01:52.057Z,11.63
2019-02-08T06:06:55.516Z,8.60
2019-02-08T06:11:59.054Z,19.53
2019-02-08T06:17:02.670Z,14.30
2019-02-08T06:22:06.953Z,11.30
2019-02-08T06:27:10.420Z,13.23
2019-02-08T06:32:13.794Z,16.03
2019-02-08T06:37:17.237Z,15.13
2019-02-08T06:42:20.715Z,12.87
2019-02-08T06:47:27.010Z,11.93
2019-02-08T06:52:30.552Z,12.73
2019-02-08T06:57:41.535Z,13.07
2019-02-08T07:03:04.304Z,13.00
2019-02-08T07:08:25.635Z,16.23
2019-02-08T07:13:47.786Z,12.00
2019-02-08T07:19:10.147Z,9.90
2019-02-08T07:24:42.128Z,8.67
2019-02-08T07:30:03.566Z,10.27
2019-02-08T07:35:43.535Z,15.40
2019-02-08T07:41:14.187Z,13.33
2019-02-08T07:46:50.674Z,8.33
2019-02-08T07:52:16.509Z,10.00
2019-02-08T07:57:57.607Z,12.07
2019-02-08T08:03:18.734Z,10.23
2019-02-08T08:08:59.857Z,13.63
2019-02-08T08:14:16.760Z,7.13
2019-02-08T08:19:52.531Z,9.90
2019-02-08T08:25:20.626Z,8.83
2019-02-08T08:30:41.857Z,16.07
2019-02-08T08:36:29.710Z,9.43
2019-02-08T08:42:22.581Z,7.80
2019-02-08T08:48:24.570Z,8.67
2019-02-08T08:54:16.870Z,11.00
2019-02-08T08:59:56.646Z,14.70
2019-02-08T09:05:43.636Z,8.63
2019-02-08T09:11:34.152Z,14.20
2019-02-08T09:17:14.672Z,12.50
2019-02-08T09:22:54.183Z,11.00
2019-02-08T09:28:57.504Z,14.00
2019-02-08T09:34:40.445Z,9.57
2019-02-08T09:40:33.724Z,13.93
2019-02-08T09:46:32.951Z,12.60
2019-02-08T09:52:28.582Z,12.50
2019-02-08T09:57:53.673Z,15.13
2019-02-08T10:03:50.742Z,11.93
2019-02-08T10:09:37.501Z,14.07
2019-02-08T10:15:24.940Z,12.27
2019-02-08T10:21:05.735Z,10.97
2019-02-08T10:27:02.809Z,11.20
2019-02-08T10:32:53.428Z,10.00
2019-02-08T10:38:37.390Z,12.80
2019-02-08T10:44:33.639Z,13.10
2019-02-08T10:50:14.637Z,13.53
2019-02-08T10:56:20.437Z,14.30
2019-02-08T11:02:17.685Z,13.97
2019-02-08T11:08:20.285Z,15.20
2019-02-08T11:13:59.332Z,14.63
2019-02-08T11:19:37.971Z,13.27
2019-02-08T11:24:41.315Z,14.73
2019-02-08T11:29:44.798Z,17.43
2019-02-08T11:34:52.922Z,15.90
2019-02-08T11:39:56.400Z,11.83
2019-02-08T11:45:02.820Z,15.33
2019-02-08T11:50:08.165Z,13.17
2019-02-08T11:55:11.766Z,13.90
2019-02-08T12:00:25.756Z,12.63
2019-02-08T12:05:29.139Z,10.20
2019-02-08T12:10:32.682Z,8.70
2019-02-08T12:15:36.123Z,9.27
2019-02-08T12:20:39.480Z,6.70
2019-02-08T12:25:45.873Z,7.10
2019-02-08T12:30:49.716Z,10.10
2019-02-08T12:35:53.435Z,9.47
2019-02-08T12:40:56.886Z,6.83
2019-02-08T12:46:09.379Z,7.47
2019-02-08T12:51:12.862Z,9.07
2019-02-08T12:56:16.277Z,6.93
2019-02-08T13:01:25.631Z,5.77
2019-02-08T13:06:35.322Z,5.80
2019-02-08T13:11:38.835Z,10.60
2019-02-08T13:16:42.168Z,4.63
2019-02-08T13:21:45.866Z,7.03
2019-02-08T13:26:55.116Z,6.50
2019-02-08T13:31:58.522Z,4.57
2019-02-08T13:37:04.580Z,4.10
2019-02-08T13:42:08.314Z,7.53
2019-02-08T13:47:14.697Z,7.13
2019-02-08T13:52:18.101Z,5.23
2019-02-08T13:57:21.476Z,5.40
2019-02-08T14:02:24.855Z,3.50
2019-02-08T14:07:28.249Z,3.43
2019-02-08T14:12:31.787Z,5.60
2019-02-08T14:17:35.118Z,7.33
2019-02-08T14:22:38.767Z,4.53
2019-02-08T14:27:42.033Z,5.07
2019-02-08T14:32:51.471Z,4.57
2019-02-08T14:37:59.175Z,4.23
2019-02-08T14:43:03.302Z,3.33
2019-02-08T14:48:06.767Z,3.20
2019-02-08T14:53:10.341Z,3.07
2019-02-08T14:58:13.952Z,4.60
2019-02-08T15:03:17.433Z,4.87
2019-02-08T15:08:20.947Z,2.60
2019-02-08T15:13:24.272Z,5.83
2019-02-08T15:18:27.804Z,2.77
2019-02-08T15:23:31.421Z,3.30
2019-02-08T15:28:36.440Z,7.63
2019-02-08T15:33:39.987Z,3.60
2019-02-08T15:38:43.275Z,3.87
2019-02-08T15:43:46.664Z,4.03
2019-02-08T15:48:50.073Z,3.73
2019-02-08T15:53:53.535Z,7.37
2019-02-08T15:58:57.130Z,4.50
2019-02-08T16:04:00.499Z,3.90
2019-02-08T16:09:11.045Z,3.83
2019-02-08T16:14:14.561Z,4.20
2019-02-08T16:19:17.886Z,7.77
2019-02-08T16:24:21.316Z,6.10
2019-02-08T16:29:24.738Z,5.13
2019-02-08T16:34:28.263Z,3.20
2019-02-08T16:39:31.679Z,4.30
2019-02-08T16:44:37.519Z,5.40
2019-02-08T16:49:41.010Z,3.93
2019-02-08T16:54:44.423Z,3.23
2019-02-08T16:59:49.376Z,4.80
2019-02-08T17:04:54.017Z,5.13
2019-02-08T17:10:05.598Z,3.10
2019-02-08T17:15:14.157Z,3.33
2019-02-08T17:20:24.386Z,4.43
2019-02-08T17:25:30.708Z,3.77
2019-02-08T17:30:34.303Z,2.50
2019-02-08T17:35:39.366Z,3.83
2019-02-08T17:40:46.406Z,2.50
2019-02-08T17:45:51.863Z,4.00
2019-02-08T17:50:58.770Z,4.20
2019-02-08T17:56:02.243Z,2.50
2019-02-08T18:01:09.039Z,3.37
2019-02-08T18:06:12.860Z,5.97
2019-02-08T18:11:16.240Z,3.40
2019-02-08T18:16:20.096Z,3.33
2019-02-08T18:21:23.917Z,3.77
2019-02-08T18:26:28.047Z,3.33
2019-02-08T18:31:31.872Z,5.93
2019-02-08T18:36:36.105Z,3.23
2019-02-08T18:41:39.722Z,2.57
2019-02-08T18:46:43.440Z,5.77
2019-02-08T18:51:50.744Z,3.23
2019-02-08T18:56:56.256Z,3.27
2019-02-08T19:02:07.809Z,4.20
2019-02-08T19:07:14.713Z,4.63
2019-02-08T19:12:18.840Z,2.97
2019-02-08T19:17:22.557Z,2.50
2019-02-08T19:22:28.043Z,5.50
2019-02-08T19:27:34.532Z,3.20
2019-02-08T19:32:38.529Z,3.80
2019-02-08T19:37:50.270Z,4.20
2019-02-08T19:42:57.543Z,5.97
2019-02-08T19:48:04.162Z,5.20
2019-02-08T19:53:08.567Z,2.87
2019-02-08T19:58:12.390Z,3.93
2019-02-08T20:03:16.315Z,5.80
2019-02-08T20:08:20.148Z,3.27
2019-02-08T20:13:24.173Z,3.87
2019-02-08T20:18:30.656Z,4.77
2019-02-08T20:23:36.339Z,2.70
2019-02-08T20:28:43.730Z,2.80
2019-02-08T20:33:52.256Z,4.93
2019-02-08T20:38:56.600Z,3.40
2019-02-08T20:44:00.422Z,4.53
2019-02-08T20:49:03.791Z,3.13
2019-02-08T20:54:07.255Z,2.90
2019-02-08T20:59:10.793Z,3.97
2019-02-08T21:04:18.807Z,3.90
2019-02-08T21:09:22.132Z,4.60
2019-02-08T21:14:28.617Z,3.40
2019-02-08T21:19:32.028Z,4.33
2019-02-08T21:24:38.097Z,2.70
2019-02-08T21:29:41.626Z,4.80
2019-02-08T21:34:45.007Z,4.40
2019-02-08T21:39:48.220Z,3.47
2019-02-08T21:44:51.392Z,3.57
2019-02-08T21:50:00.600Z,3.13
2019-02-08T21:55:04.904Z,8.10
2019-02-08T22:00:19.829Z,3.47
2019-02-08T22:05:25.211Z,3.20
2019-02-08T22:10:28.588Z,4.87
2019-02-08T22:15:35.587Z,4.20
2019-02-08T22:20:39.147Z,4.03
2019-02-08T22:25:43.340Z,4.30
2019-02-08T22:30:47.369Z,3.20
2019-02-08T22:35:59.423Z,7.60
2019-02-08T22:41:02.598Z,3.60
2019-02-08T22:46:06.935Z,2.60
2019-02-08T22:51:10.167Z,7.00
2019-02-08T22:56:13.274Z,3.03
2019-02-08T23:01:30.110Z,5.87
2019-02-08T23:06:33.494Z,3.60
2019-02-08T23:11:36.924Z,5.47
2019-02-08T23:16:40.138Z,2.43
2019-02-08T23:21:43.441Z,4.57
2019-02-08T23:26:46.959Z,3.73
2019-02-08T23:31:53.367Z,2.97
2019-02-08T23:36:56.652Z,2.87
2019-02-08T23:42:03.172Z,4.40
2019-02-08T23:47:06.446Z,4.67
2019-02-08T23:52:09.714Z,3.07
2019-02-08T23:57:13.273Z,3.00
